sensor_id;sensor_type;location;lat;lon;timestamp;P1;durP1;ratioP1;P2;durP2;ratioP2
58376;SDS011;58852;43.460;19.812;2022-07-29T00:00:08;12.73;;;9.70;;
58376;SDS011;58852;43.460;19.812;2022-07-29T00:02:35;10.75;;;9.02;;
58376;SDS011;58852;43.460;19.812;2022-07-29T00:05:02;17.92;;;9.60;;
58376;SDS011;58852;43.460;19.812;2022-07-29T00:07:28;14.65;;;10.07;;
58376;SDS011;58852;43.460;19.812;2022-07-29T00:09:54;10.50;;;8.63;;
58376;SDS011;58852;43.460;19.812;2022-07-29T00:12:21;11.60;;;9.32;;
58376;SDS011;58852;43.460;19.812;2022-07-29T00:14:48;10.30;;;9.18;;
58376;SDS011;58852;43.460;19.812;2022-07-29T00:17:14;14.98;;;9.57;;
58376;SDS011;58852;43.460;19.812;2022-07-29T00:19:40;9.00;;;7.43;;
58376;SDS011;58852;43.460;19.812;2022-07-29T00:22:06;21.70;;;9.13;;
58376;SDS011;58852;43.460;19.812;2022-07-29T00:24:32;12.38;;;8.43;;
58376;SDS011;58852;43.460;19.812;2022-07-29T00:26:58;16.52;;;8.40;;
58376;SDS011;58852;43.460;19.812;2022-07-29T00:29:24;12.45;;;9.48;;
58376;SDS011;58852;43.460;19.812;2022-07-29T00:31:50;11.55;;;8.27;;
58376;SDS011;58852;43.460;19.812;2022-07-29T00:34:16;11.85;;;10.07;;
58376;SDS011;58852;43.460;19.812;2022-07-29T00:37:01;11.13;;;7.55;;
58376;SDS011;58852;43.460;19.812;2022-07-29T00:39:27;21.30;;;11.25;;
58376;SDS011;58852;43.460;19.812;2022-07-29T00:41:53;15.77;;;9.45;;
58376;SDS011;58852;43.460;19.812;2022-07-29T00:44:19;11.50;;;9.45;;
58376;SDS011;58852;43.460;19.812;2022-07-29T00:46:45;12.55;;;9.20;;
58376;SDS011;58852;43.460;19.812;2022-07-29T00:49:12;13.98;;;9.30;;
58376;SDS011;58852;43.460;19.812;2022-07-29T00:51:38;11.95;;;8.75;;
58376;SDS011;58852;43.460;19.812;2022-07-29T00:54:05;11.35;;;9.13;;
58376;SDS011;58852;43.460;19.812;2022-07-29T00:56:31;11.43;;;8.82;;
58376;SDS011;58852;43.460;19.812;2022-07-29T00:58:58;14.57;;;9.02;;
58376;SDS011;58852;43.460;19.812;2022-07-29T01:01:24;14.48;;;9.98;;
58376;SDS011;58852;43.460;19.812;2022-07-29T01:03:50;10.75;;;7.53;;
58376;SDS011;58852;43.460;19.812;2022-07-29T01:06:17;10.80;;;7.88;;
58376;SDS011;58852;43.460;19.812;2022-07-29T01:08:44;17.90;;;10.35;;
58376;SDS011;58852;43.460;19.812;2022-07-29T01:11:11;11.38;;;8.00;;
58376;SDS011;58852;43.460;19.812;2022-07-29T01:13:37;9.23;;;8.07;;
58376;SDS011;58852;43.460;19.812;2022-07-29T01:16:07;11.15;;;8.73;;
58376;SDS011;58852;43.460;19.812;2022-07-29T01:18:38;13.57;;;9.55;;
58376;SDS011;58852;43.460;19.812;2022-07-29T01:28:39;15.18;;;8.82;;
58376;SDS011;58852;43.460;19.812;2022-07-29T01:31:11;11.93;;;8.48;;
58376;SDS011;58852;43.460;19.812;2022-07-29T01:33:41;11.27;;;8.13;;
58376;SDS011;58852;43.460;19.812;2022-07-29T01:36:14;10.70;;;8.70;;
58376;SDS011;58852;43.460;19.812;2022-07-29T01:38:42;15.00;;;9.52;;
58376;SDS011;58852;43.460;19.812;2022-07-29T01:41:09;9.00;;;7.35;;
58376;SDS011;58852;43.460;19.812;2022-07-29T01:43:41;11.30;;;8.23;;
58376;SDS011;58852;43.460;19.812;2022-07-29T01:46:14;11.07;;;8.38;;
58376;SDS011;58852;43.460;19.812;2022-07-29T01:48:55;10.18;;;8.60;;
58376;SDS011;58852;43.460;19.812;2022-07-29T01:51:31;9.95;;;7.60;;
58376;SDS011;58852;43.460;19.812;2022-07-29T01:54:16;11.45;;;8.45;;
58376;SDS011;58852;43.460;19.812;2022-07-29T01:56:45;8.15;;;7.10;;
58376;SDS011;58852;43.460;19.812;2022-07-29T01:59:12;9.15;;;7.65;;
58376;SDS011;58852;43.460;19.812;2022-07-29T02:01:39;10.63;;;7.93;;
58376;SDS011;58852;43.460;19.812;2022-07-29T02:04:06;11.48;;;8.52;;
58376;SDS011;58852;43.460;19.812;2022-07-29T02:06:34;12.57;;;8.70;;
58376;SDS011;58852;43.460;19.812;2022-07-29T02:09:02;9.10;;;7.70;;
58376;SDS011;58852;43.460;19.812;2022-07-29T02:11:30;8.75;;;7.72;;
58376;SDS011;58852;43.460;19.812;2022-07-29T02:13:56;10.15;;;8.68;;
58376;SDS011;58852;43.460;19.812;2022-07-29T02:16:23;11.73;;;10.05;;
58376;SDS011;58852;43.460;19.812;2022-07-29T02:18:52;10.25;;;7.97;;
58376;SDS011;58852;43.460;19.812;2022-07-29T02:21:20;10.23;;;8.52;;
58376;SDS011;58852;43.460;19.812;2022-07-29T02:23:47;8.80;;;7.90;;
58376;SDS011;58852;43.460;19.812;2022-07-29T02:26:13;10.25;;;7.15;;
58376;SDS011;58852;43.460;19.812;2022-07-29T02:28:40;12.73;;;7.55;;
58376;SDS011;58852;43.460;19.812;2022-07-29T02:31:07;11.52;;;7.93;;
58376;SDS011;58852;43.460;19.812;2022-07-29T02:33:33;10.27;;;8.50;;
58376;SDS011;58852;43.460;19.812;2022-07-29T02:36:00;9.70;;;8.50;;
58376;SDS011;58852;43.460;19.812;2022-07-29T02:38:27;9.98;;;7.50;;
58376;SDS011;58852;43.460;19.812;2022-07-29T02:41:15;14.93;;;8.25;;
58376;SDS011;58852;43.460;19.812;2022-07-29T02:43:44;9.95;;;8.55;;
58376;SDS011;58852;43.460;19.812;2022-07-29T02:46:18;10.98;;;8.68;;
58376;SDS011;58852;43.460;19.812;2022-07-29T02:49:13;11.35;;;9.32;;
58376;SDS011;58852;43.460;19.812;2022-07-29T02:51:45;10.85;;;8.30;;
58376;SDS011;58852;43.460;19.812;2022-07-29T02:54:23;15.07;;;8.90;;
58376;SDS011;58852;43.460;19.812;2022-07-29T02:57:06;10.20;;;8.07;;
58376;SDS011;58852;43.460;19.812;2022-07-29T02:59:45;11.43;;;8.40;;
58376;SDS011;58852;43.460;19.812;2022-07-29T03:02:13;11.52;;;8.95;;
58376;SDS011;58852;43.460;19.812;2022-07-29T03:04:40;10.88;;;8.52;;
58376;SDS011;58852;43.460;19.812;2022-07-29T03:07:07;15.35;;;8.95;;
58376;SDS011;58852;43.460;19.812;2022-07-29T03:09:34;14.38;;;7.90;;
58376;SDS011;58852;43.460;19.812;2022-07-29T03:12:01;11.50;;;8.20;;
58376;SDS011;58852;43.460;19.812;2022-07-29T03:14:28;12.65;;;8.35;;
58376;SDS011;58852;43.460;19.812;2022-07-29T03:16:56;12.32;;;8.27;;
58376;SDS011;58852;43.460;19.812;2022-07-29T03:19:22;9.10;;;7.80;;
58376;SDS011;58852;43.460;19.812;2022-07-29T03:21:48;13.43;;;9.10;;
58376;SDS011;58852;43.460;19.812;2022-07-29T03:24:24;10.25;;;7.85;;
58376;SDS011;58852;43.460;19.812;2022-07-29T03:26:50;7.80;;;6.90;;
58376;SDS011;58852;43.460;19.812;2022-07-29T03:29:16;10.57;;;8.35;;
58376;SDS011;58852;43.460;19.812;2022-07-29T03:31:42;9.40;;;7.68;;
58376;SDS011;58852;43.460;19.812;2022-07-29T03:34:08;11.45;;;8.15;;
58376;SDS011;58852;43.460;19.812;2022-07-29T03:36:35;9.73;;;7.88;;
58376;SDS011;58852;43.460;19.812;2022-07-29T03:39:01;10.10;;;7.85;;
58376;SDS011;58852;43.460;19.812;2022-07-29T03:41:27;16.17;;;9.13;;
58376;SDS011;58852;43.460;19.812;2022-07-29T03:43:54;12.68;;;8.10;;
58376;SDS011;58852;43.460;19.812;2022-07-29T03:46:22;9.95;;;7.57;;
58376;SDS011;58852;43.460;19.812;2022-07-29T03:48:50;10.73;;;7.68;;
58376;SDS011;58852;43.460;19.812;2022-07-29T03:51:18;11.65;;;8.63;;
58376;SDS011;58852;43.460;19.812;2022-07-29T03:53:44;10.95;;;8.05;;
58376;SDS011;58852;43.460;19.812;2022-07-29T03:56:10;10.25;;;8.13;;
58376;SDS011;58852;43.460;19.812;2022-07-29T03:58:41;9.10;;;7.32;;
58376;SDS011;58852;43.460;19.812;2022-07-29T04:01:07;11.85;;;9.27;;
58376;SDS011;58852;43.460;19.812;2022-07-29T04:03:34;11.02;;;9.63;;
58376;SDS011;58852;43.460;19.812;2022-07-29T04:06:01;8.98;;;7.57;;
58376;SDS011;58852;43.460;19.812;2022-07-29T04:08:27;10.60;;;7.80;;
58376;SDS011;58852;43.460;19.812;2022-07-29T04:10:53;11.52;;;8.00;;
58376;SDS011;58852;43.460;19.812;2022-07-29T04:13:20;15.35;;;8.43;;
58376;SDS011;58852;43.460;19.812;2022-07-29T04:15:46;11.40;;;8.27;;
58376;SDS011;58852;43.460;19.812;2022-07-29T04:18:12;8.70;;;7.28;;
58376;SDS011;58852;43.460;19.812;2022-07-29T04:20:38;11.02;;;8.20;;
58376;SDS011;58852;43.460;19.812;2022-07-29T04:23:04;13.02;;;8.65;;
58376;SDS011;58852;43.460;19.812;2022-07-29T04:25:30;10.45;;;8.55;;
58376;SDS011;58852;43.460;19.812;2022-07-29T04:27:56;10.90;;;8.02;;
58376;SDS011;58852;43.460;19.812;2022-07-29T04:30:25;17.75;;;8.23;;
58376;SDS011;58852;43.460;19.812;2022-07-29T04:32:52;10.82;;;7.15;;
58376;SDS011;58852;43.460;19.812;2022-07-29T04:35:18;11.05;;;8.88;;
58376;SDS011;58852;43.460;19.812;2022-07-29T04:37:45;12.63;;;9.05;;
58376;SDS011;58852;43.460;19.812;2022-07-29T04:40:11;12.13;;;7.93;;
58376;SDS011;58852;43.460;19.812;2022-07-29T04:42:37;8.90;;;7.53;;
58376;SDS011;58852;43.460;19.812;2022-07-29T04:45:04;10.68;;;8.05;;
58376;SDS011;58852;43.460;19.812;2022-07-29T04:47:30;13.65;;;8.93;;
58376;SDS011;58852;43.460;19.812;2022-07-29T04:49:56;11.73;;;8.15;;
58376;SDS011;58852;43.460;19.812;2022-07-29T04:52:22;14.20;;;8.52;;
58376;SDS011;58852;43.460;19.812;2022-07-29T04:54:48;10.98;;;8.82;;
58376;SDS011;58852;43.460;19.812;2022-07-29T04:57:15;11.70;;;9.77;;
58376;SDS011;58852;43.460;19.812;2022-07-29T04:59:41;11.75;;;9.52;;
58376;SDS011;58852;43.460;19.812;2022-07-29T05:02:07;10.98;;;8.23;;
58376;SDS011;58852;43.460;19.812;2022-07-29T05:04:33;10.20;;;8.15;;
58376;SDS011;58852;43.460;19.812;2022-07-29T05:06:59;14.13;;;8.70;;
58376;SDS011;58852;43.460;19.812;2022-07-29T05:09:25;10.57;;;8.90;;
58376;SDS011;58852;43.460;19.812;2022-07-29T05:11:51;10.50;;;8.20;;
58376;SDS011;58852;43.460;19.812;2022-07-29T05:14:17;10.95;;;7.95;;
58376;SDS011;58852;43.460;19.812;2022-07-29T05:16:43;9.95;;;7.80;;
58376;SDS011;58852;43.460;19.812;2022-07-29T05:19:09;10.75;;;7.75;;
58376;SDS011;58852;43.460;19.812;2022-07-29T05:21:36;11.73;;;9.20;;
58376;SDS011;58852;43.460;19.812;2022-07-29T05:24:02;12.88;;;9.07;;
58376;SDS011;58852;43.460;19.812;2022-07-29T05:26:28;10.13;;;8.10;;
58376;SDS011;58852;43.460;19.812;2022-07-29T05:28:54;13.25;;;8.73;;
58376;SDS011;58852;43.460;19.812;2022-07-29T05:31:21;12.93;;;9.00;;
58376;SDS011;58852;43.460;19.812;2022-07-29T05:33:47;10.20;;;7.80;;
58376;SDS011;58852;43.460;19.812;2022-07-29T05:36:13;9.43;;;7.32;;
58376;SDS011;58852;43.460;19.812;2022-07-29T05:38:39;12.02;;;7.95;;
58376;SDS011;58852;43.460;19.812;2022-07-29T05:41:05;10.82;;;8.10;;
58376;SDS011;58852;43.460;19.812;2022-07-29T05:43:31;11.93;;;10.48;;
58376;SDS011;58852;43.460;19.812;2022-07-29T05:45:57;13.70;;;11.18;;
58376;SDS011;58852;43.460;19.812;2022-07-29T05:48:24;9.27;;;8.02;;
58376;SDS011;58852;43.460;19.812;2022-07-29T05:50:50;11.40;;;8.93;;
58376;SDS011;58852;43.460;19.812;2022-07-29T05:53:16;10.55;;;8.35;;
58376;SDS011;58852;43.460;19.812;2022-07-29T05:55:42;9.32;;;7.25;;
58376;SDS011;58852;43.460;19.812;2022-07-29T05:58:08;10.45;;;7.70;;
58376;SDS011;58852;43.460;19.812;2022-07-29T06:00:34;14.52;;;8.52;;
58376;SDS011;58852;43.460;19.812;2022-07-29T06:03:00;9.50;;;8.48;;
58376;SDS011;58852;43.460;19.812;2022-07-29T06:05:26;12.38;;;8.68;;
58376;SDS011;58852;43.460;19.812;2022-07-29T06:07:53;11.43;;;7.93;;
58376;SDS011;58852;43.460;19.812;2022-07-29T06:10:19;12.98;;;8.55;;
58376;SDS011;58852;43.460;19.812;2022-07-29T06:12:45;10.23;;;7.82;;
58376;SDS011;58852;43.460;19.812;2022-07-29T06:15:11;10.13;;;8.10;;
58376;SDS011;58852;43.460;19.812;2022-07-29T06:17:37;12.23;;;9.48;;
58376;SDS011;58852;43.460;19.812;2022-07-29T06:20:03;10.00;;;7.95;;
58376;SDS011;58852;43.460;19.812;2022-07-29T06:22:29;13.10;;;7.22;;
58376;SDS011;58852;43.460;19.812;2022-07-29T06:24:55;11.48;;;9.32;;
58376;SDS011;58852;43.460;19.812;2022-07-29T06:27:22;9.60;;;8.63;;
58376;SDS011;58852;43.460;19.812;2022-07-29T06:29:48;11.20;;;8.30;;
58376;SDS011;58852;43.460;19.812;2022-07-29T06:32:14;12.57;;;8.60;;
58376;SDS011;58852;43.460;19.812;2022-07-29T06:34:40;9.35;;;7.80;;
58376;SDS011;58852;43.460;19.812;2022-07-29T06:37:06;11.23;;;8.18;;
58376;SDS011;58852;43.460;19.812;2022-07-29T06:39:34;14.40;;;7.80;;
58376;SDS011;58852;43.460;19.812;2022-07-29T06:42:00;10.95;;;8.20;;
58376;SDS011;58852;43.460;19.812;2022-07-29T06:44:26;12.23;;;8.85;;
58376;SDS011;58852;43.460;19.812;2022-07-29T06:46:52;9.60;;;8.05;;
58376;SDS011;58852;43.460;19.812;2022-07-29T06:49:19;10.57;;;7.75;;
58376;SDS011;58852;43.460;19.812;2022-07-29T06:51:45;11.75;;;7.68;;
58376;SDS011;58852;43.460;19.812;2022-07-29T06:54:11;10.60;;;8.45;;
58376;SDS011;58852;43.460;19.812;2022-07-29T06:56:38;11.52;;;7.78;;
58376;SDS011;58852;43.460;19.812;2022-07-29T06:59:10;11.98;;;7.45;;
58376;SDS011;58852;43.460;19.812;2022-07-29T07:01:37;10.65;;;7.97;;
58376;SDS011;58852;43.460;19.812;2022-07-29T07:04:03;8.68;;;7.30;;
58376;SDS011;58852;43.460;19.812;2022-07-29T07:06:29;11.13;;;7.45;;
58376;SDS011;58852;43.460;19.812;2022-07-29T07:08:55;11.48;;;9.52;;
58376;SDS011;58852;43.460;19.812;2022-07-29T07:11:21;11.30;;;9.52;;
58376;SDS011;58852;43.460;19.812;2022-07-29T07:13:47;12.85;;;10.02;;
58376;SDS011;58852;43.460;19.812;2022-07-29T07:16:14;12.55;;;9.60;;
58376;SDS011;58852;43.460;19.812;2022-07-29T07:18:40;14.93;;;12.25;;
58376;SDS011;58852;43.460;19.812;2022-07-29T07:21:06;14.02;;;9.45;;
58376;SDS011;58852;43.460;19.812;2022-07-29T07:23:32;12.82;;;9.95;;
58376;SDS011;58852;43.460;19.812;2022-07-29T07:25:58;9.98;;;8.35;;
58376;SDS011;58852;43.460;19.812;2022-07-29T07:28:24;12.82;;;7.95;;
58376;SDS011;58852;43.460;19.812;2022-07-29T07:30:51;14.40;;;9.90;;
58376;SDS011;58852;43.460;19.812;2022-07-29T07:33:17;14.20;;;9.38;;
58376;SDS011;58852;43.460;19.812;2022-07-29T07:35:43;13.85;;;9.77;;
58376;SDS011;58852;43.460;19.812;2022-07-29T07:38:09;14.18;;;9.70;;
58376;SDS011;58852;43.460;19.812;2022-07-29T07:40:35;19.92;;;11.00;;
58376;SDS011;58852;43.460;19.812;2022-07-29T07:43:02;14.68;;;9.43;;
58376;SDS011;58852;43.460;19.812;2022-07-29T07:45:28;14.20;;;9.23;;
58376;SDS011;58852;43.460;19.812;2022-07-29T07:47:54;15.73;;;9.60;;
58376;SDS011;58852;43.460;19.812;2022-07-29T07:50:20;12.13;;;8.93;;
58376;SDS011;58852;43.460;19.812;2022-07-29T07:52:53;14.63;;;9.30;;
58376;SDS011;58852;43.460;19.812;2022-07-29T07:55:22;13.40;;;10.13;;
58376;SDS011;58852;43.460;19.812;2022-07-29T07:57:48;10.60;;;8.90;;
58376;SDS011;58852;43.460;19.812;2022-07-29T08:00:15;12.57;;;8.60;;
58376;SDS011;58852;43.460;19.812;2022-07-29T08:02:42;11.95;;;8.50;;
58376;SDS011;58852;43.460;19.812;2022-07-29T08:05:10;14.38;;;9.00;;
58376;SDS011;58852;43.460;19.812;2022-07-29T08:07:40;12.18;;;7.88;;
58376;SDS011;58852;43.460;19.812;2022-07-29T08:10:07;12.27;;;8.70;;
58376;SDS011;58852;43.460;19.812;2022-07-29T08:12:33;8.68;;;7.70;;
58376;SDS011;58852;43.460;19.812;2022-07-29T08:14:59;12.52;;;10.02;;
58376;SDS011;58852;43.460;19.812;2022-07-29T08:17:25;10.75;;;8.80;;
58376;SDS011;58852;43.460;19.812;2022-07-29T08:19:52;10.90;;;7.20;;
58376;SDS011;58852;43.460;19.812;2022-07-29T08:22:18;12.85;;;9.07;;
58376;SDS011;58852;43.460;19.812;2022-07-29T08:24:44;11.73;;;8.88;;
58376;SDS011;58852;43.460;19.812;2022-07-29T08:27:20;14.63;;;9.35;;
58376;SDS011;58852;43.460;19.812;2022-07-29T08:29:46;11.07;;;8.32;;
58376;SDS011;58852;43.460;19.812;2022-07-29T08:32:13;11.10;;;9.02;;
58376;SDS011;58852;43.460;19.812;2022-07-29T08:34:39;12.40;;;8.15;;
58376;SDS011;58852;43.460;19.812;2022-07-29T08:37:05;11.30;;;9.13;;
58376;SDS011;58852;43.460;19.812;2022-07-29T08:39:31;10.93;;;7.60;;
58376;SDS011;58852;43.460;19.812;2022-07-29T08:41:56;10.27;;;7.55;;
58376;SDS011;58852;43.460;19.812;2022-07-29T08:44:22;34.17;;;12.73;;
58376;SDS011;58852;43.460;19.812;2022-07-29T08:46:48;10.77;;;7.70;;
58376;SDS011;58852;43.460;19.812;2022-07-29T08:49:15;10.88;;;8.30;;
58376;SDS011;58852;43.460;19.812;2022-07-29T08:51:41;14.75;;;8.35;;
58376;SDS011;58852;43.460;19.812;2022-07-29T08:54:08;12.50;;;9.02;;
58376;SDS011;58852;43.460;19.812;2022-07-29T08:56:35;12.77;;;7.75;;
58376;SDS011;58852;43.460;19.812;2022-07-29T08:59:03;15.45;;;9.98;;
58376;SDS011;58852;43.460;19.812;2022-07-29T09:01:30;15.07;;;8.35;;
58376;SDS011;58852;43.460;19.812;2022-07-29T09:03:58;14.90;;;8.63;;
58376;SDS011;58852;43.460;19.812;2022-07-29T09:06:26;11.50;;;8.30;;
58376;SDS011;58852;43.460;19.812;2022-07-29T09:08:58;10.02;;;7.78;;
58376;SDS011;58852;43.460;19.812;2022-07-29T09:11:24;12.63;;;7.80;;
58376;SDS011;58852;43.460;19.812;2022-07-29T09:13:51;10.68;;;7.15;;
58376;SDS011;58852;43.460;19.812;2022-07-29T09:16:16;17.15;;;9.50;;
58376;SDS011;58852;43.460;19.812;2022-07-29T09:18:43;10.43;;;7.55;;
58376;SDS011;58852;43.460;19.812;2022-07-29T09:21:11;10.00;;;7.40;;
58376;SDS011;58852;43.460;19.812;2022-07-29T09:24:09;7.97;;;7.07;;
58376;SDS011;58852;43.460;19.812;2022-07-29T09:26:41;10.43;;;7.82;;
58376;SDS011;58852;43.460;19.812;2022-07-29T09:29:18;12.57;;;9.73;;
58376;SDS011;58852;43.460;19.812;2022-07-29T09:31:50;10.75;;;6.93;;
58376;SDS011;58852;43.460;19.812;2022-07-29T09:34:27;11.07;;;8.55;;
58376;SDS011;58852;43.460;19.812;2022-07-29T09:36:56;9.50;;;6.85;;
58376;SDS011;58852;43.460;19.812;2022-07-29T09:42:10;11.40;;;7.78;;
58376;SDS011;58852;43.460;19.812;2022-07-29T09:47:11;10.47;;;7.63;;
58376;SDS011;58852;43.460;19.812;2022-07-29T09:52:25;22.95;;;7.38;;
58376;SDS011;58852;43.460;19.812;2022-07-29T09:54:51;10.55;;;8.57;;
58376;SDS011;58852;43.460;19.812;2022-07-29T09:57:26;9.35;;;8.32;;
58376;SDS011;58852;43.460;19.812;2022-07-29T09:59:57;11.38;;;6.80;;
58376;SDS011;58852;43.460;19.812;2022-07-29T10:02:29;9.50;;;7.22;;
58376;SDS011;58852;43.460;19.812;2022-07-29T10:04:59;7.75;;;6.80;;
58376;SDS011;58852;43.460;19.812;2022-07-29T10:07:26;11.60;;;7.70;;
58376;SDS011;58852;43.460;19.812;2022-07-29T10:12:53;9.65;;;6.68;;
58376;SDS011;58852;43.460;19.812;2022-07-29T10:15:23;9.88;;;6.93;;
58376;SDS011;58852;43.460;19.812;2022-07-29T10:17:52;7.63;;;6.47;;
58376;SDS011;58852;43.460;19.812;2022-07-29T10:20:18;7.55;;;6.50;;
58376;SDS011;58852;43.460;19.812;2022-07-29T10:22:45;8.27;;;6.70;;
58376;SDS011;58852;43.460;19.812;2022-07-29T10:25:12;6.97;;;5.65;;
58376;SDS011;58852;43.460;19.812;2022-07-29T10:27:40;8.05;;;6.53;;
58376;SDS011;58852;43.460;19.812;2022-07-29T10:30:06;5.95;;;5.35;;
58376;SDS011;58852;43.460;19.812;2022-07-29T10:35:34;8.38;;;6.85;;
58376;SDS011;58852;43.460;19.812;2022-07-29T10:44:17;10.65;;;6.82;;
58376;SDS011;58852;43.460;19.812;2022-07-29T10:46:45;9.88;;;6.53;;
58376;SDS011;58852;43.460;19.812;2022-07-29T10:49:13;9.48;;;5.35;;
58376;SDS011;58852;43.460;19.812;2022-07-29T10:51:55;11.80;;;6.38;;
58376;SDS011;58852;43.460;19.812;2022-07-29T10:54:40;9.60;;;6.15;;
58376;SDS011;58852;43.460;19.812;2022-07-29T10:57:19;7.43;;;5.82;;
58376;SDS011;58852;43.460;19.812;2022-07-29T10:59:46;7.30;;;5.63;;
58376;SDS011;58852;43.460;19.812;2022-07-29T11:02:59;8.93;;;5.95;;
58376;SDS011;58852;43.460;19.812;2022-07-29T11:05:01;8.52;;;5.82;;
58376;SDS011;58852;43.460;19.812;2022-07-29T11:07:28;6.22;;;4.18;;
58376;SDS011;58852;43.460;19.812;2022-07-29T11:15:11;7.93;;;5.47;;
58376;SDS011;58852;43.460;19.812;2022-07-29T11:20:39;13.68;;;11.50;;
58376;SDS011;58852;43.460;19.812;2022-07-29T11:23:25;6.13;;;5.00;;
58376;SDS011;58852;43.460;19.812;2022-07-29T11:29:03;7.15;;;5.25;;
58376;SDS011;58852;43.460;19.812;2022-07-29T11:31:33;7.35;;;5.10;;
58376;SDS011;58852;43.460;19.812;2022-07-29T11:34:19;7.13;;;6.43;;
58376;SDS011;58852;43.460;19.812;2022-07-29T11:39:30;6.65;;;5.00;;
58376;SDS011;58852;43.460;19.812;2022-07-29T11:45:14;6.60;;;5.10;;
58376;SDS011;58852;43.460;19.812;2022-07-29T11:47:39;5.00;;;4.15;;
58376;SDS011;58852;43.460;19.812;2022-07-29T11:50:06;6.18;;;4.90;;
58376;SDS011;58852;43.460;19.812;2022-07-29T11:52:34;6.70;;;5.22;;
58376;SDS011;58852;43.460;19.812;2022-07-29T11:55:02;6.85;;;4.90;;
58376;SDS011;58852;43.460;19.812;2022-07-29T11:57:29;6.00;;;4.63;;
58376;SDS011;58852;43.460;19.812;2022-07-29T11:59:55;6.63;;;5.35;;
58376;SDS011;58852;43.460;19.812;2022-07-29T12:02:23;6.95;;;4.63;;
58376;SDS011;58852;43.460;19.812;2022-07-29T12:04:53;8.23;;;5.20;;
58376;SDS011;58852;43.460;19.812;2022-07-29T12:07:26;8.48;;;5.40;;
58376;SDS011;58852;43.460;19.812;2022-07-29T12:09:53;8.50;;;5.18;;
58376;SDS011;58852;43.460;19.812;2022-07-29T12:12:19;7.57;;;5.32;;
58376;SDS011;58852;43.460;19.812;2022-07-29T12:14:46;7.63;;;5.50;;
58376;SDS011;58852;43.460;19.812;2022-07-29T12:17:31;6.18;;;4.82;;
58376;SDS011;58852;43.460;19.812;2022-07-29T12:19:58;8.90;;;4.85;;
58376;SDS011;58852;43.460;19.812;2022-07-29T12:22:31;7.72;;;5.93;;
58376;SDS011;58852;43.460;19.812;2022-07-29T12:25:01;7.85;;;5.13;;
58376;SDS011;58852;43.460;19.812;2022-07-29T12:27:27;6.18;;;4.65;;
58376;SDS011;58852;43.460;19.812;2022-07-29T12:32:22;5.97;;;4.22;;
58376;SDS011;58852;43.460;19.812;2022-07-29T12:34:49;7.78;;;5.35;;
58376;SDS011;58852;43.460;19.812;2022-07-29T12:37:16;7.13;;;6.13;;
58376;SDS011;58852;43.460;19.812;2022-07-29T12:39:42;9.27;;;7.10;;
58376;SDS011;58852;43.460;19.812;2022-07-29T12:42:12;7.38;;;5.13;;
58376;SDS011;58852;43.460;19.812;2022-07-29T12:44:45;8.30;;;5.97;;
58376;SDS011;58852;43.460;19.812;2022-07-29T12:47:11;7.00;;;6.18;;
58376;SDS011;58852;43.460;19.812;2022-07-29T12:49:38;8.13;;;6.65;;
58376;SDS011;58852;43.460;19.812;2022-07-29T12:52:37;9.10;;;6.43;;
58376;SDS011;58852;43.460;19.812;2022-07-29T12:54:56;6.60;;;5.90;;
58376;SDS011;58852;43.460;19.812;2022-07-29T12:57:22;7.65;;;6.35;;
58376;SDS011;58852;43.460;19.812;2022-07-29T13:00:03;7.22;;;6.53;;
58376;SDS011;58852;43.460;19.812;2022-07-29T13:02:29;6.45;;;5.53;;
58376;SDS011;58852;43.460;19.812;2022-07-29T13:04:56;8.18;;;7.00;;
58376;SDS011;58852;43.460;19.812;2022-07-29T13:07:26;9.18;;;6.40;;
58376;SDS011;58852;43.460;19.812;2022-07-29T13:10:11;8.07;;;7.05;;
58376;SDS011;58852;43.460;19.812;2022-07-29T13:12:39;8.13;;;6.22;;
58376;SDS011;58852;43.460;19.812;2022-07-29T13:15:25;7.93;;;6.63;;
58376;SDS011;58852;43.460;19.812;2022-07-29T13:17:51;7.75;;;6.50;;
58376;SDS011;58852;43.460;19.812;2022-07-29T13:20:17;9.18;;;6.88;;
58376;SDS011;58852;43.460;19.812;2022-07-29T13:22:42;7.05;;;6.15;;
58376;SDS011;58852;43.460;19.812;2022-07-29T13:25:13;8.68;;;7.07;;
58376;SDS011;58852;43.460;19.812;2022-07-29T13:27:39;8.18;;;7.38;;
58376;SDS011;58852;43.460;19.812;2022-07-29T13:30:06;8.02;;;7.20;;
58376;SDS011;58852;43.460;19.812;2022-07-29T13:32:33;8.70;;;7.88;;
58376;SDS011;58852;43.460;19.812;2022-07-29T13:35:00;9.13;;;7.43;;
58376;SDS011;58852;43.460;19.812;2022-07-29T13:37:27;8.50;;;6.72;;
58376;SDS011;58852;43.460;19.812;2022-07-29T13:39:54;8.80;;;6.53;;
58376;SDS011;58852;43.460;19.812;2022-07-29T13:42:21;10.40;;;7.03;;
58376;SDS011;58852;43.460;19.812;2022-07-29T13:44:47;9.13;;;7.32;;
58376;SDS011;58852;43.460;19.812;2022-07-29T13:47:15;7.75;;;6.25;;
58376;SDS011;58852;43.460;19.812;2022-07-29T13:49:41;7.35;;;6.65;;
58376;SDS011;58852;43.460;19.812;2022-07-29T13:52:07;7.50;;;6.40;;
58376;SDS011;58852;43.460;19.812;2022-07-29T13:54:33;9.32;;;6.65;;
58376;SDS011;58852;43.460;19.812;2022-07-29T13:57:02;8.38;;;7.13;;
58376;SDS011;58852;43.460;19.812;2022-07-29T13:59:29;7.00;;;5.82;;
58376;SDS011;58852;43.460;19.812;2022-07-29T14:01:54;8.43;;;7.20;;
58376;SDS011;58852;43.460;19.812;2022-07-29T14:04:20;10.02;;;8.93;;
58376;SDS011;58852;43.460;19.812;2022-07-29T14:06:48;7.45;;;6.63;;
58376;SDS011;58852;43.460;19.812;2022-07-29T14:09:14;7.32;;;6.60;;
58376;SDS011;58852;43.460;19.812;2022-07-29T14:11:40;9.70;;;7.13;;
58376;SDS011;58852;43.460;19.812;2022-07-29T14:14:06;8.23;;;7.03;;
58376;SDS011;58852;43.460;19.812;2022-07-29T14:16:33;8.82;;;6.68;;
58376;SDS011;58852;43.460;19.812;2022-07-29T14:18:59;7.75;;;6.90;;
58376;SDS011;58852;43.460;19.812;2022-07-29T14:21:25;7.72;;;6.93;;
58376;SDS011;58852;43.460;19.812;2022-07-29T14:23:51;9.18;;;7.32;;
58376;SDS011;58852;43.460;19.812;2022-07-29T14:26:19;7.10;;;6.05;;
58376;SDS011;58852;43.460;19.812;2022-07-29T14:28:45;7.07;;;6.38;;
58376;SDS011;58852;43.460;19.812;2022-07-29T14:31:11;6.80;;;6.03;;
58376;SDS011;58852;43.460;19.812;2022-07-29T14:33:37;7.85;;;5.95;;
58376;SDS011;58852;43.460;19.812;2022-07-29T14:36:03;6.80;;;6.03;;
58376;SDS011;58852;43.460;19.812;2022-07-29T14:38:29;6.78;;;5.95;;
58376;SDS011;58852;43.460;19.812;2022-07-29T14:40:55;6.65;;;5.70;;
58376;SDS011;58852;43.460;19.812;2022-07-29T14:43:22;7.00;;;5.15;;
58376;SDS011;58852;43.460;19.812;2022-07-29T14:45:48;8.13;;;5.88;;
58376;SDS011;58852;43.460;19.812;2022-07-29T14:48:14;7.45;;;6.35;;
58376;SDS011;58852;43.460;19.812;2022-07-29T14:50:40;6.60;;;5.90;;
58376;SDS011;58852;43.460;19.812;2022-07-29T14:53:06;5.72;;;5.13;;
58376;SDS011;58852;43.460;19.812;2022-07-29T14:55:32;7.72;;;5.75;;
58376;SDS011;58852;43.460;19.812;2022-07-29T14:57:58;6.80;;;5.95;;
58376;SDS011;58852;43.460;19.812;2022-07-29T15:00:25;10.35;;;9.35;;
58376;SDS011;58852;43.460;19.812;2022-07-29T15:02:51;6.40;;;5.38;;
58376;SDS011;58852;43.460;19.812;2022-07-29T15:05:17;6.97;;;5.70;;
58376;SDS011;58852;43.460;19.812;2022-07-29T15:07:43;7.40;;;6.25;;
58376;SDS011;58852;43.460;19.812;2022-07-29T15:10:10;9.68;;;6.07;;
58376;SDS011;58852;43.460;19.812;2022-07-29T15:12:36;6.85;;;5.95;;
58376;SDS011;58852;43.460;19.812;2022-07-29T15:15:02;5.82;;;5.22;;
58376;SDS011;58852;43.460;19.812;2022-07-29T15:17:28;6.72;;;6.03;;